sensor_id;sensor_type;location;lat;lon;timestamp;pressure;altitude;pressure_sealevel;temperature
65180;BMP280;51849;47.476;8.084;2022-10-18T00:00:05;97507.09;;;13.96
65180;BMP280;51849;47.476;8.084;2022-10-18T00:02:31;97506.38;;;13.96
65180;BMP280;51849;47.476;8.084;2022-10-18T00:04:56;97505.84;;;13.92
65180;BMP280;51849;47.476;8.084;2022-10-18T00:07:24;97506.13;;;13.94
65180;BMP280;51849;47.476;8.084;2022-10-18T00:09:50;97506.13;;;13.94
65180;BMP280;51849;47.476;8.084;2022-10-18T00:12:18;97510.38;;;13.91
65180;BMP280;51849;47.476;8.084;2022-10-18T00:14:51;97508.25;;;13.90
65180;BMP280;51849;47.476;8.084;2022-10-18T00:17:16;97515.38;;;13.89
65180;BMP280;51849;47.476;8.084;2022-10-18T00:19:42;97517.31;;;13.89
65180;BMP280;51849;47.476;8.084;2022-10-18T00:22:08;97502.47;;;13.86
65180;BMP280;51849;47.476;8.084;2022-10-18T00:24:34;97501.03;;;13.85
65180;BMP280;51849;47.476;8.084;2022-10-18T00:27:00;97499.84;;;13.86
65180;BMP280;51849;47.476;8.084;2022-10-18T00:29:25;97493.66;;;13.83
65180;BMP280;51849;47.476;8.084;2022-10-18T00:31:51;97494.38;;;13.84
65180;BMP280;51849;47.476;8.084;2022-10-18T00:34:19;97493.84;;;13.80
65180;BMP280;51849;47.476;8.084;2022-10-18T00:36:45;97486.00;;;13.80
65180;BMP280;51849;47.476;8.084;2022-10-18T00:39:19;97495.94;;;13.76
65180;BMP280;51849;47.476;8.084;2022-10-18T00:41:46;97489.53;;;13.77
65180;BMP280;51849;47.476;8.084;2022-10-18T00:46:42;97481.22;;;13.78
65180;BMP280;51849;47.476;8.084;2022-10-18T00:49:13;97486.69;;;13.80
65180;BMP280;51849;47.476;8.084;2022-10-18T00:51:46;97495.28;;;13.81
65180;BMP280;51849;47.476;8.084;2022-10-18T00:54:13;97479.56;;;13.81
65180;BMP280;51849;47.476;8.084;2022-10-18T00:56:40;97482.91;;;13.81
65180;BMP280;51849;47.476;8.084;2022-10-18T00:59:06;97482.66;;;13.85
65180;BMP280;51849;47.476;8.084;2022-10-18T01:01:32;97484.63;;;13.84
65180;BMP280;51849;47.476;8.084;2022-10-18T01:04:00;97488.69;;;13.91
65180;BMP280;51849;47.476;8.084;2022-10-18T01:06:27;97480.13;;;13.90
65180;BMP280;51849;47.476;8.084;2022-10-18T01:18:17;97484.16;;;13.91
65180;BMP280;51849;47.476;8.084;2022-10-18T01:23:56;97483.97;;;13.95
65180;BMP280;51849;47.476;8.084;2022-10-18T01:26:49;97479.44;;;13.95
65180;BMP280;51849;47.476;8.084;2022-10-18T01:31:47;97479.47;;;14.01
65180;BMP280;51849;47.476;8.084;2022-10-18T01:34:16;97476.13;;;14.00
65180;BMP280;51849;47.476;8.084;2022-10-18T01:37:02;97478.03;;;14.00
65180;BMP280;51849;47.476;8.084;2022-10-18T01:39:35;97475.41;;;14.00
65180;BMP280;51849;47.476;8.084;2022-10-18T01:42:05;97465.19;;;14.02
65180;BMP280;51849;47.476;8.084;2022-10-18T01:44:33;97471.84;;;14.03
65180;BMP280;51849;47.476;8.084;2022-10-18T01:47:00;97472.50;;;13.98
65180;BMP280;51849;47.476;8.084;2022-10-18T01:49:26;97472.78;;;14.00
65180;BMP280;51849;47.476;8.084;2022-10-18T01:51:52;97475.91;;;14.04
65180;BMP280;51849;47.476;8.084;2022-10-18T01:54:21;97481.41;;;14.06
65180;BMP280;51849;47.476;8.084;2022-10-18T02:10:35;97467.56;;;14.00
65180;BMP280;51849;47.476;8.084;2022-10-18T02:13:03;97469.22;;;14.03
65180;BMP280;51849;47.476;8.084;2022-10-18T02:15:32;97470.44;;;14.02
65180;BMP280;51849;47.476;8.084;2022-10-18T02:18:06;97470.84;;;13.95
65180;BMP280;51849;47.476;8.084;2022-10-18T02:20:33;97462.47;;;13.91
65180;BMP280;51849;47.476;8.084;2022-10-18T02:23:02;97458.19;;;13.93
65180;BMP280;51849;47.476;8.084;2022-10-18T02:25:30;97454.16;;;13.98
65180;BMP280;51849;47.476;8.084;2022-10-18T02:27:57;97451.44;;;13.87
65180;BMP280;51849;47.476;8.084;2022-10-18T02:30:29;97452.16;;;13.82
65180;BMP280;51849;47.476;8.084;2022-10-18T02:33:04;97453.16;;;13.84
65180;BMP280;51849;47.476;8.084;2022-10-18T02:35:35;97455.53;;;13.88
65180;BMP280;51849;47.476;8.084;2022-10-18T02:38:04;97462.66;;;13.82
65180;BMP280;51849;47.476;8.084;2022-10-18T02:40:31;97468.31;;;13.80
65180;BMP280;51849;47.476;8.084;2022-10-18T02:42:57;97456.41;;;13.79
65180;BMP280;51849;47.476;8.084;2022-10-18T02:45:26;97460.94;;;13.79
65180;BMP280;51849;47.476;8.084;2022-10-18T02:47:52;97464.22;;;13.74
65180;BMP280;51849;47.476;8.084;2022-10-18T02:50:18;97466.16;;;13.79
65180;BMP280;51849;47.476;8.084;2022-10-18T02:52:44;97458.81;;;13.77
65180;BMP280;51849;47.476;8.084;2022-10-18T02:55:09;97472.34;;;13.76
65180;BMP280;51849;47.476;8.084;2022-10-18T02:57:36;97464.47;;;13.76
65180;BMP280;51849;47.476;8.084;2022-10-18T03:00:05;97461.41;;;13.77
65180;BMP280;51849;47.476;8.084;2022-10-18T03:02:31;97475.50;;;13.80
65180;BMP280;51849;47.476;8.084;2022-10-18T03:04:59;97481.00;;;13.82
65180;BMP280;51849;47.476;8.084;2022-10-18T03:07:25;97490.34;;;13.88
65180;BMP280;51849;47.476;8.084;2022-10-18T03:09:51;97486.94;;;13.82
65180;BMP280;51849;47.476;8.084;2022-10-18T03:12:16;97492.41;;;13.79
65180;BMP280;51849;47.476;8.084;2022-10-18T03:14:42;97501.66;;;13.74
65180;BMP280;51849;47.476;8.084;2022-10-18T03:17:08;97503.78;;;13.70
65180;BMP280;51849;47.476;8.084;2022-10-18T03:19:34;97495.91;;;13.70
65180;BMP280;51849;47.476;8.084;2022-10-18T03:22:03;97499.50;;;13.73
65180;BMP280;51849;47.476;8.084;2022-10-18T03:24:29;97508.81;;;13.74
65180;BMP280;51849;47.476;8.084;2022-10-18T03:26:58;97510.94;;;13.70
65180;BMP280;51849;47.476;8.084;2022-10-18T03:29:24;97508.03;;;13.68
65180;BMP280;51849;47.476;8.084;2022-10-18T03:31:50;97513.28;;;13.68
65180;BMP280;51849;47.476;8.084;2022-10-18T03:34:15;97505.66;;;13.64
65180;BMP280;51849;47.476;8.084;2022-10-18T03:36:44;97517.31;;;13.63
65180;BMP280;51849;47.476;8.084;2022-10-18T03:39:10;97528.97;;;13.62
65180;BMP280;51849;47.476;8.084;2022-10-18T03:41:36;97517.06;;;13.67
65180;BMP280;51849;47.476;8.084;2022-10-18T03:44:02;97524.19;;;13.61
65180;BMP280;51849;47.476;8.084;2022-10-18T03:46:28;97525.78;;;13.52
65180;BMP280;51849;47.476;8.084;2022-10-18T03:48:54;97522.56;;;13.43
65180;BMP280;51849;47.476;8.084;2022-10-18T03:51:19;97523.94;;;13.33
65180;BMP280;51849;47.476;8.084;2022-10-18T03:53:45;97524.91;;;13.35
65180;BMP280;51849;47.476;8.084;2022-10-18T03:56:12;97533.41;;;14.02
65180;BMP280;51849;47.476;8.084;2022-10-18T03:58:38;97533.16;;;14.36
65180;BMP280;51849;47.476;8.084;2022-10-18T04:01:03;97531.00;;;14.04
65180;BMP280;51849;47.476;8.084;2022-10-18T04:03:29;97533.59;;;13.73
65180;BMP280;51849;47.476;8.084;2022-10-18T04:05:55;97533.75;;;13.64
65180;BMP280;51849;47.476;8.084;2022-10-18T04:08:21;97526.25;;;13.51
65180;BMP280;51849;47.476;8.084;2022-10-18T04:10:47;97529.72;;;13.42
65180;BMP280;51849;47.476;8.084;2022-10-18T04:13:14;97530.59;;;13.34
65180;BMP280;51849;47.476;8.084;2022-10-18T04:15:40;97533.41;;;13.30
65180;BMP280;51849;47.476;8.084;2022-10-18T04:18:06;97536.69;;;13.25
65180;BMP280;51849;47.476;8.084;2022-10-18T04:20:34;97538.06;;;13.21
65180;BMP280;51849;47.476;8.084;2022-10-18T04:22:59;97538.94;;;13.12
65180;BMP280;51849;47.476;8.084;2022-10-18T04:25:28;97541.16;;;13.19
65180;BMP280;51849;47.476;8.084;2022-10-18T04:27:54;97536.81;;;13.16
65180;BMP280;51849;47.476;8.084;2022-10-18T04:30:20;97546.97;;;13.09
65180;BMP280;51849;47.476;8.084;2022-10-18T04:32:45;97549.78;;;13.05
65180;BMP280;51849;47.476;8.084;2022-10-18T04:35:11;97539.53;;;13.02
65180;BMP280;51849;47.476;8.084;2022-10-18T04:37:37;97548.09;;;13.02
65180;BMP280;51849;47.476;8.084;2022-10-18T04:40:03;97549.47;;;12.98
65180;BMP280;51849;47.476;8.084;2022-10-18T04:42:29;97548.00;;;12.97
65180;BMP280;51849;47.476;8.084;2022-10-18T04:44:55;97545.66;;;12.99
65180;BMP280;51849;47.476;8.084;2022-10-18T04:47:25;97552.28;;;12.94
65180;BMP280;51849;47.476;8.084;2022-10-18T04:49:51;97546.88;;;12.83
65180;BMP280;51849;47.476;8.084;2022-10-18T04:52:17;97557.56;;;12.80
65180;BMP280;51849;47.476;8.084;2022-10-18T04:54:42;97547.91;;;12.71
65180;BMP280;51849;47.476;8.084;2022-10-18T04:57:09;97562.91;;;12.71
65180;BMP280;51849;47.476;8.084;2022-10-18T04:59:35;97561.78;;;12.77
65180;BMP280;51849;47.476;8.084;2022-10-18T05:02:02;97552.63;;;12.67
65180;BMP280;51849;47.476;8.084;2022-10-18T05:04:28;97548.75;;;12.63
65180;BMP280;51849;47.476;8.084;2022-10-18T05:06:54;97546.31;;;12.59
65180;BMP280;51849;47.476;8.084;2022-10-18T05:09:20;97536.94;;;12.53
65180;BMP280;51849;47.476;8.084;2022-10-18T05:11:49;97538.47;;;12.59
65180;BMP280;51849;47.476;8.084;2022-10-18T05:14:15;97535.34;;;12.55
65180;BMP280;51849;47.476;8.084;2022-10-18T05:16:42;97535.34;;;12.55
65180;BMP280;51849;47.476;8.084;2022-10-18T05:19:08;97534.59;;;12.55
65180;BMP280;51849;47.476;8.084;2022-10-18T05:21:36;97534.13;;;12.56
65180;BMP280;51849;47.476;8.084;2022-10-18T05:24:02;97539.28;;;12.51
65180;BMP280;51849;47.476;8.084;2022-10-18T05:26:33;97527.56;;;12.46
65180;BMP280;51849;47.476;8.084;2022-10-18T05:28:59;97523.59;;;12.51
65180;BMP280;51849;47.476;8.084;2022-10-18T05:31:24;97532.72;;;12.55
65180;BMP280;51849;47.476;8.084;2022-10-18T05:33:52;97530.72;;;12.50
65180;BMP280;51849;47.476;8.084;2022-10-18T05:36:18;97537.41;;;12.51
65180;BMP280;51849;47.476;8.084;2022-10-18T05:38:44;97534.50;;;12.49
65180;BMP280;51849;47.476;8.084;2022-10-18T05:41:12;97541.81;;;12.45
65180;BMP280;51849;47.476;8.084;2022-10-18T05:43:39;97544.09;;;12.38
65180;BMP280;51849;47.476;8.084;2022-10-18T05:46:05;97543.13;;;12.35
65180;BMP280;51849;47.476;8.084;2022-10-18T05:48:33;97544.91;;;12.29
65180;BMP280;51849;47.476;8.084;2022-10-18T05:50:59;97536.78;;;12.27
65180;BMP280;51849;47.476;8.084;2022-10-18T05:53:28;97544.81;;;12.23
65180;BMP280;51849;47.476;8.084;2022-10-18T05:55:54;97541.97;;;12.22
65180;BMP280;51849;47.476;8.084;2022-10-18T05:58:20;97541.75;;;12.25
65180;BMP280;51849;47.476;8.084;2022-10-18T06:00:45;97536.78;;;12.27
65180;BMP280;51849;47.476;8.084;2022-10-18T06:03:11;97548.16;;;12.24
65180;BMP280;51849;47.476;8.084;2022-10-18T06:05:37;97545.72;;;12.20
65180;BMP280;51849;47.476;8.084;2022-10-18T06:08:02;97551.41;;;12.19
65180;BMP280;51849;47.476;8.084;2022-10-18T06:10:28;97549.59;;;12.25
65180;BMP280;51849;47.476;8.084;2022-10-18T06:12:54;97538.97;;;12.29
65180;BMP280;51849;47.476;8.084;2022-10-18T06:15:19;97536.88;;;12.33
65180;BMP280;51849;47.476;8.084;2022-10-18T06:17:48;97546.25;;;12.39
65180;BMP280;51849;47.476;8.084;2022-10-18T06:20:13;97543.28;;;12.46
65180;BMP280;51849;47.476;8.084;2022-10-18T06:22:39;97551.03;;;12.55
65180;BMP280;51849;47.476;8.084;2022-10-18T06:25:05;97542.81;;;12.62
65180;BMP280;51849;47.476;8.084;2022-10-18T06:27:33;97548.28;;;12.64
65180;BMP280;51849;47.476;8.084;2022-10-18T06:29:59;97549.94;;;12.62
65180;BMP280;51849;47.476;8.084;2022-10-18T06:32:24;97548.09;;;12.68
65180;BMP280;51849;47.476;8.084;2022-10-18T06:34:50;97552.44;;;12.71
65180;BMP280;51849;47.476;8.084;2022-10-18T06:37:16;97558.72;;;12.79
65180;BMP280;51849;47.476;8.084;2022-10-18T06:39:44;97565.75;;;12.87
65180;BMP280;51849;47.476;8.084;2022-10-18T06:42:10;97569.69;;;12.97
65180;BMP280;51849;47.476;8.084;2022-10-18T06:44:35;97563.81;;;13.02
65180;BMP280;51849;47.476;8.084;2022-10-18T06:47:04;97568.38;;;13.07
65180;BMP280;51849;47.476;8.084;2022-10-18T06:49:32;97566.00;;;13.09
65180;BMP280;51849;47.476;8.084;2022-10-18T06:51:57;97578.72;;;13.16
65180;BMP280;51849;47.476;8.084;2022-10-18T06:54:23;97575.72;;;13.23
65180;BMP280;51849;47.476;8.084;2022-10-18T06:56:49;97585.81;;;13.30
65180;BMP280;51849;47.476;8.084;2022-10-18T06:59:15;97579.47;;;13.37
65180;BMP280;51849;47.476;8.084;2022-10-18T07:01:40;97576.00;;;13.45
65180;BMP280;51849;47.476;8.084;2022-10-18T07:04:08;97577.97;;;13.50
65180;BMP280;51849;47.476;8.084;2022-10-18T07:06:34;97586.31;;;13.54
65180;BMP280;51849;47.476;8.084;2022-10-18T07:09:00;97585.88;;;13.56
65180;BMP280;51849;47.476;8.084;2022-10-18T07:11:30;97594.22;;;13.60
65180;BMP280;51849;47.476;8.084;2022-10-18T07:14:00;97600.22;;;13.61
65180;BMP280;51849;47.476;8.084;2022-10-18T07:16:27;97607.19;;;13.64
65180;BMP280;51849;47.476;8.084;2022-10-18T07:18:53;97604.09;;;13.65
65180;BMP280;51849;47.476;8.084;2022-10-18T07:21:21;97606.22;;;13.67
65180;BMP280;51849;47.476;8.084;2022-10-18T07:23:48;97602.69;;;13.70
65180;BMP280;51849;47.476;8.084;2022-10-18T07:26:22;97611.34;;;13.76
65180;BMP280;51849;47.476;8.084;2022-10-18T07:28:51;97610.22;;;13.82
65180;BMP280;51849;47.476;8.084;2022-10-18T07:31:18;97611.19;;;13.85
65180;BMP280;51849;47.476;8.084;2022-10-18T07:33:44;97604.31;;;13.87
65180;BMP280;51849;47.476;8.084;2022-10-18T07:36:11;97608.41;;;13.94
65180;BMP280;51849;47.476;8.084;2022-10-18T07:38:38;97602.03;;;14.00
65180;BMP280;51849;47.476;8.084;2022-10-18T07:41:06;97604.47;;;14.04
65180;BMP280;51849;47.476;8.084;2022-10-18T07:43:32;97602.13;;;14.11
65180;BMP280;51849;47.476;8.084;2022-10-18T07:46:00;97598.38;;;14.18
65180;BMP280;51849;47.476;8.084;2022-10-18T07:48:28;97599.44;;;14.26
65180;BMP280;51849;47.476;8.084;2022-10-18T07:51:00;97598.47;;;14.29
65180;BMP280;51849;47.476;8.084;2022-10-18T07:53:27;97594.97;;;14.37
65180;BMP280;51849;47.476;8.084;2022-10-18T07:56:00;97599.59;;;14.48
65180;BMP280;51849;47.476;8.084;2022-10-18T07:58:26;97597.97;;;14.56
65180;BMP280;51849;47.476;8.084;2022-10-18T08:00:52;97599.94;;;14.66
65180;BMP280;51849;47.476;8.084;2022-10-18T08:03:19;97603.56;;;14.74
65180;BMP280;51849;47.476;8.084;2022-10-18T08:05:53;97598.09;;;14.78
65180;BMP280;51849;47.476;8.084;2022-10-18T08:08:20;97604.34;;;14.86
65180;BMP280;51849;47.476;8.084;2022-10-18T08:10:48;97606.31;;;15.02
65180;BMP280;51849;47.476;8.084;2022-10-18T08:13:14;97594.47;;;15.12
65180;BMP280;51849;47.476;8.084;2022-10-18T08:15:41;97599.06;;;15.28
65180;BMP280;51849;47.476;8.084;2022-10-18T08:18:06;97597.91;;;15.40
65180;BMP280;51849;47.476;8.084;2022-10-18T08:20:33;97596.22;;;15.48
65180;BMP280;51849;47.476;8.084;2022-10-18T08:23:00;97588.63;;;15.56
65180;BMP280;51849;47.476;8.084;2022-10-18T08:25:27;97587.91;;;15.66
65180;BMP280;51849;47.476;8.084;2022-10-18T08:27:52;97589.84;;;15.71
65180;BMP280;51849;47.476;8.084;2022-10-18T08:30:18;97597.25;;;15.89
65180;BMP280;51849;47.476;8.084;2022-10-18T08:32:44;97598.47;;;16.10
65180;BMP280;51849;47.476;8.084;2022-10-18T08:35:12;97598.44;;;16.32
65180;BMP280;51849;47.476;8.084;2022-10-18T08:37:38;97592.00;;;16.39
65180;BMP280;51849;47.476;8.084;2022-10-18T08:40:05;97593.44;;;16.51
65180;BMP280;51849;47.476;8.084;2022-10-18T08:45:23;97606.28;;;16.82
65180;BMP280;51849;47.476;8.084;2022-10-18T08:47:50;97597.88;;;16.89
65180;BMP280;51849;47.476;8.084;2022-10-18T08:50:22;97601.69;;;16.94
65180;BMP280;51849;47.476;8.084;2022-10-18T08:53:03;97600.94;;;17.04
65180;BMP280;51849;47.476;8.084;2022-10-18T08:55:37;97603.03;;;17.17
65180;BMP280;51849;47.476;8.084;2022-10-18T08:58:16;97593.41;;;17.25
65180;BMP280;51849;47.476;8.084;2022-10-18T09:00:48;97590.69;;;17.41
65180;BMP280;51849;47.476;8.084;2022-10-18T09:06:04;97597.59;;;17.50
65180;BMP280;51849;47.476;8.084;2022-10-18T09:08:56;97595.56;;;17.67
65180;BMP280;51849;47.476;8.084;2022-10-18T09:11:46;97600.28;;;17.79
65180;BMP280;51849;47.476;8.084;2022-10-18T09:22:56;97589.34;;;18.48
65180;BMP280;51849;47.476;8.084;2022-10-18T09:28:05;97586.75;;;18.66
65180;BMP280;51849;47.476;8.084;2022-10-18T09:33:39;97589.72;;;18.81
65180;BMP280;51849;47.476;8.084;2022-10-18T09:36:15;97586.28;;;18.86
65180;BMP280;51849;47.476;8.084;2022-10-18T09:38:48;97586.22;;;19.10
65180;BMP280;51849;47.476;8.084;2022-10-18T09:43:49;97582.84;;;19.28
65180;BMP280;51849;47.476;8.084;2022-10-18T09:46:20;97585.19;;;19.32
65180;BMP280;51849;47.476;8.084;2022-10-18T09:49:04;97573.22;;;19.44
65180;BMP280;51849;47.476;8.084;2022-10-18T09:51:37;97591.56;;;19.42
65180;BMP280;51849;47.476;8.084;2022-10-18T09:54:21;97587.41;;;19.46
65180;BMP280;51849;47.476;8.084;2022-10-18T09:56:52;97584.50;;;19.44
65180;BMP280;51849;47.476;8.084;2022-10-18T09:59:29;97586.91;;;19.61
65180;BMP280;51849;47.476;8.084;2022-10-18T10:01:55;97589.50;;;19.66
65180;BMP280;51849;47.476;8.084;2022-10-18T10:04:23;97589.28;;;19.64
65180;BMP280;51849;47.476;8.084;2022-10-18T10:06:51;97589.09;;;19.75
65180;BMP280;51849;47.476;8.084;2022-10-18T10:09:23;97591.31;;;19.90
65180;BMP280;51849;47.476;8.084;2022-10-18T10:11:53;97592.44;;;19.94
65180;BMP280;51849;47.476;8.084;2022-10-18T10:14:22;97591.19;;;19.95
65180;BMP280;51849;47.476;8.084;2022-10-18T10:17:04;97594.09;;;20.10
65180;BMP280;51849;47.476;8.084;2022-10-18T10:22:08;97585.94;;;20.21
65180;BMP280;51849;47.476;8.084;2022-10-18T10:27:16;97591.25;;;20.34
65180;BMP280;51849;47.476;8.084;2022-10-18T10:32:13;97589.38;;;20.29
65180;BMP280;51849;47.476;8.084;2022-10-18T10:34:40;97591.72;;;20.33
65180;BMP280;51849;47.476;8.084;2022-10-18T10:37:23;97590.31;;;20.32
65180;BMP280;51849;47.476;8.084;2022-10-18T10:42:31;97588.66;;;20.42
65180;BMP280;51849;47.476;8.084;2022-10-18T10:44:57;97586.75;;;20.42
65180;BMP280;51849;47.476;8.084;2022-10-18T10:47:30;97583.78;;;20.59
65180;BMP280;51849;47.476;8.084;2022-10-18T10:49:57;97584.47;;;20.59
65180;BMP280;51849;47.476;8.084;2022-10-18T10:52:24;97586.91;;;20.57
65180;BMP280;51849;47.476;8.084;2022-10-18T10:54:53;97579.59;;;20.63
65180;BMP280;51849;47.476;8.084;2022-10-18T10:57:23;97573.66;;;20.70
65180;BMP280;51849;47.476;8.084;2022-10-18T10:59:56;97573.16;;;20.72
65180;BMP280;51849;47.476;8.084;2022-10-18T11:02:33;97565.25;;;20.80
65180;BMP280;51849;47.476;8.084;2022-10-18T11:05:22;97565.34;;;20.87
65180;BMP280;51849;47.476;8.084;2022-10-18T11:07:51;97566.47;;;20.92
65180;BMP280;51849;47.476;8.084;2022-10-18T11:10:23;97563.81;;;20.92
65180;BMP280;51849;47.476;8.084;2022-10-18T11:13:21;97563.31;;;20.93
65180;BMP280;51849;47.476;8.084;2022-10-18T11:15:52;97554.56;;;20.85
65180;BMP280;51849;47.476;8.084;2022-10-18T11:18:22;97565.03;;;20.91
65180;BMP280;51849;47.476;8.084;2022-10-18T11:23:18;97556.88;;;20.89
65180;BMP280;51849;47.476;8.084;2022-10-18T11:26:02;97555.47;;;20.88
65180;BMP280;51849;47.476;8.084;2022-10-18T11:48:11;97534.97;;;21.09
65180;BMP280;51849;47.476;8.084;2022-10-18T11:56:42;97524.63;;;21.39
65180;BMP280;51849;47.476;8.084;2022-10-18T11:59:20;97522.06;;;21.54
65180;BMP280;51849;47.476;8.084;2022-10-18T12:04:57;97521.91;;;21.52
65180;BMP280;51849;47.476;8.084;2022-10-18T12:07:33;97519.25;;;21.52
65180;BMP280;51849;47.476;8.084;2022-10-18T12:10:02;97526.06;;;21.68
65180;BMP280;51849;47.476;8.084;2022-10-18T12:12:36;97521.94;;;21.59
65180;BMP280;51849;47.476;8.084;2022-10-18T12:17:44;97523.50;;;21.55
65180;BMP280;51849;47.476;8.084;2022-10-18T12:20:14;97514.44;;;21.50
65180;BMP280;51849;47.476;8.084;2022-10-18T12:22:46;97517.03;;;21.43
65180;BMP280;51849;47.476;8.084;2022-10-18T12:25:14;97504.72;;;21.53
65180;BMP280;51849;47.476;8.084;2022-10-18T12:28:37;97509.09;;;21.71
65180;BMP280;51849;47.476;8.084;2022-10-18T12:30:54;97504.69;;;21.73
65180;BMP280;51849;47.476;8.084;2022-10-18T12:33:25;97501.13;;;21.71
65180;BMP280;51849;47.476;8.084;2022-10-18T12:38:30;97500.00;;;21.59
65180;BMP280;51849;47.476;8.084;2022-10-18T12:40:56;97494.16;;;21.60
65180;BMP280;51849;47.476;8.084;2022-10-18T12:43:25;97489.75;;;21.63
65180;BMP280;51849;47.476;8.084;2022-10-18T12:45:57;97487.84;;;21.71
65180;BMP280;51849;47.476;8.084;2022-10-18T12:48:37;97485.53;;;21.67
65180;BMP280;51849;47.476;8.084;2022-10-18T12:51:22;97484.63;;;21.65
65180;BMP280;51849;47.476;8.084;2022-10-18T12:53:54;97487.59;;;21.61
65180;BMP280;51849;47.476;8.084;2022-10-18T12:56:39;97485.38;;;21.73
65180;BMP280;51849;47.476;8.084;2022-10-18T13:11:55;97471.16;;;21.63
65180;BMP280;51849;47.476;8.084;2022-10-18T13:20:08;97448.63;;;21.84
65180;BMP280;51849;47.476;8.084;2022-10-18T13:27:43;97452.09;;;21.72
65180;BMP280;51849;47.476;8.084;2022-10-18T13:58:03;97454.44;;;21.83
65180;BMP280;51849;47.476;8.084;2022-10-18T14:08:59;97460.56;;;21.70
65180;BMP280;51849;47.476;8.084;2022-10-18T14:11:41;97453.97;;;21.64
65180;BMP280;51849;47.476;8.084;2022-10-18T14:14:34;97456.63;;;21.64
65180;BMP280;51849;47.476;8.084;2022-10-18T14:19:40;97459.09;;;21.62
65180;BMP280;51849;47.476;8.084;2022-10-18T14:22:24;97463.03;;;21.61
65180;BMP280;51849;47.476;8.084;2022-10-18T14:24:53;97463.03;;;21.61
65180;BMP280;51849;47.476;8.084;2022-10-18T14:27:29;97458.56;;;21.63
65180;BMP280;51849;47.476;8.084;2022-10-18T14:30:16;97454.13;;;21.58
65180;BMP280;51849;47.476;8.084;2022-10-18T14:32:51;97456.94;;;21.53
65180;BMP280;51849;47.476;8.084;2022-10-18T14:35:25;97455.16;;;21.55
65180;BMP280;51849;47.476;8.084;2022-10-18T14:37:53;97458.66;;;21.50
65180;BMP280;51849;47.476;8.084;2022-10-18T14:40:33;97456.56;;;21.49
65180;BMP280;51849;47.476;8.084;2022-10-18T14:43:17;97460.44;;;21.48
65180;BMP280;51849;47.476;8.084;2022-10-18T14:45:43;97467.13;;;21.41
65180;BMP280;51849;47.476;8.084;2022-10-18T14:48:14;97460.44;;;21.48
65180;BMP280;51849;47.476;8.084;2022-10-18T14:50:42;97448.31;;;21.39
65180;BMP280;51849;47.476;8.084;2022-10-18T14:53:15;97465.13;;;21.34
65180;BMP280;51849;47.476;8.084;2022-10-18T14:55:44;97454.81;;;21.31
65180;BMP280;51849;47.476;8.084;2022-10-18T14:58:17;97455.69;;;21.26
65180;BMP280;51849;47.476;8.084;2022-10-18T15:00:44;97454.44;;;21.27
65180;BMP280;51849;47.476;8.084;2022-10-18T15:03:13;97447.50;;;21.24
65180;BMP280;51849;47.476;8.084;2022-10-18T15:05:57;97447.84;;;21.20
65180;BMP280;51849;47.476;8.084;2022-10-18T15:08:34;97447.13;;;21.20
65180;BMP280;51849;47.476;8.084;2022-10-18T15:11:01;97452.06;;;21.16
65180;BMP280;51849;47.476;8.084;2022-10-18T15:13:29;97447.47;;;21.16
65180;BMP280;51849;47.476;8.084;2022-10-18T15:15:56;97443.94;;;21.14
65180;BMP280;51849;47.476;8.084;2022-10-18T15:18:23;97439.63;;;21.11
65180;BMP280;51849;47.476;8.084;2022-10-18T15:21:21;97436.75;;;21.01
65180;BMP280;51849;47.476;8.084;2022-10-18T15:23:48;97439.19;;;20.99
65180;BMP280;51849;47.476;8.084;2022-10-18T15:26:21;97437.06;;;20.98
65180;BMP280;51849;47.476;8.084;2022-10-18T15:28:49;97438.41;;;20.91
65180;BMP280;51849;47.476;8.084;2022-10-18T15:31:34;97430.63;;;20.86
65180;BMP280;51849;47.476;8.084;2022-10-18T15:34:17;97434.91;;;20.76
65180;BMP280;51849;47.476;8.084;2022-10-18T15:36:43;97432.91;;;20.68
65180;BMP280;51849;47.476;8.084;2022-10-18T15:44:22;97419.94;;;20.44
65180;BMP280;51849;47.476;8.084;2022-10-18T15:46:55;97415.59;;;20.34
65180;BMP280;51849;47.476;8.084;2022-10-18T15:54:41;97420.97;;;19.95
65180;BMP280;51849;47.476;8.084;2022-10-18T15:57:08;97423.91;;;19.91
65180;BMP280;51849;47.476;8.084;2022-10-18T15:59:35;97424.53;;;19.84
65180;BMP280;51849;47.476;8.084;2022-10-18T16:02:10;97419.75;;;19.70
65180;BMP280;51849;47.476;8.084;2022-10-18T16:04:40;97422.09;;;19.60
65180;BMP280;51849;47.476;8.084;2022-10-18T16:07:05;97421.16;;;19.45
65180;BMP280;51849;47.476;8.084;2022-10-18T16:09:31;97419.22;;;19.32
65180;BMP280;51849;47.476;8.084;2022-10-18T16:11:57;97415.44;;;19.28
65180;BMP280;51849;47.476;8.084;2022-10-18T16:14:24;97417.84;;;19.13
65180;BMP280;51849;47.476;8.084;2022-10-18T16:16:52;97418.31;;;18.98
65180;BMP280;51849;47.476;8.084;2022-10-18T16:19:18;97418.94;;;19.04
65180;BMP280;51849;47.476;8.084;2022-10-18T16:21:47;97419.91;;;18.88
65180;BMP280;51849;47.476;8.084;2022-10-18T16:24:14;97412.66;;;18.76
65180;BMP280;51849;47.476;8.084;2022-10-18T16:26:40;97419.09;;;18.62
65180;BMP280;51849;47.476;8.084;2022-10-18T16:29:08;97415.44;;;18.46
65180;BMP280;51849;47.476;8.084;2022-10-18T16:31:35;97416.81;;;18.53
65180;BMP280;51849;47.476;8.084;2022-10-18T16:34:01;97417.72;;;18.36
65180;BMP280;51849;47.476;8.084;2022-10-18T16:36:30;97424.06;;;18.28
65180;BMP280;51849;47.476;8.084;2022-10-18T16:39:00;97419.91;;;18.14
65180;BMP280;51849;47.476;8.084;2022-10-18T16:41:26;97413.56;;;18.04
65180;BMP280;51849;47.476;8.084;2022-10-18T16:43:52;97423.97;;;17.96
65180;BMP280;51849;47.476;8.084;2022-10-18T16:46:23;97416.53;;;17.95
65180;BMP280;51849;47.476;8.084;2022-10-18T16:48:55;97420.75;;;18.03
65180;BMP280;51849;47.476;8.084;2022-10-18T16:51:21;97425.03;;;17.88
65180;BMP280;51849;47.476;8.084;2022-10-18T16:53:47;97431.53;;;17.87
65180;BMP280;51849;47.476;8.084;2022-10-18T16:56:16;97433.59;;;17.70
65180;BMP280;51849;47.476;8.084;2022-10-18T16:58:43;97436.09;;;17.57
65180;BMP280;51849;47.476;8.084;2022-10-18T17:01:17;97434.72;;;17.50
65180;BMP280;51849;47.476;8.084;2022-10-18T17:03:43;97436.22;;;17.46
65180;BMP280;51849;47.476;8.084;2022-10-18T17:06:17;97442.00;;;17.39
65180;BMP280;51849;47.476;8.084;2022-10-18T17:08:46;97439.84;;;17.43
65180;BMP280;51849;47.476;8.084;2022-10-18T17:11:13;97441.97;;;17.44
65180;BMP280;51849;47.476;8.084;2022-10-18T17:13:42;97443.38;;;17.51